Aérodrome :
LOGIN :

S'inscrire | Disclaimer

   EN    FR    IT 

 










Légende :    VFR   VFR Marginal   IFR   IFR Intensif   IFR Très Intensif
Visi : 
Plafond : 
>= 8 km
>= 3000ft
5 à 8 km
1000 à 3000 ft
1500m à 5 km
500 à 1000 ft
800 à 1500m
200 à 500 ft
< 800m
< 200 ft
Symboles :   Orages  Brouillard  Fortes neiges  Fortes précipitations  Vent > 20 kt
SIGMETs :   Divers  Orages  Givrage  Turbulence  Onde Orograph.  Cendres Volcan.







- Altitude de l'aérodrome : 121 ft
- Code IATA : HUY
- Voir les cartes d'approche


EGNJ - Humberside

DERNIER METAR :
  • 161520Z 25022KT 4000 SHRASN BKN006 02/01 Q0989

METARs EXPIRÉS :
  • 161450Z 22017KT 8000 VCSH SCT015 SCT030 03/02 Q0989
  • 161420Z 26017G27KT 5000 -SHRASN SCT004 BKN008 03/01 Q0990
  • 161350Z 23018KT 9999 VCSH SCT006 SCT025 03/02 Q0989
  • 161320Z 24011KT 9999 VCSH SCT006 SCT025 02/02 Q0990
  • 161250Z 24022G36KT 7000 -SHRA SCT009 BKN013 04/02 Q0989

TAF TAF EGNJ
Valide du 16 à 15h jusqu'au 17 à 00h UTC


161356Z 1615/1624 24015KT 9999 FEW006 SCT025
TEMPO 1615/1624 26018G28KT
PROB40
TEMPO 1615/1624 2000 SHRASN -SHSN BKN004
ATIS : +44 1652 682 020
Pas de NOTAMs connus pour ce terrain.
2 SIGMETs publiés pour la FIR London (EGTT) :
 
Turbulence forte
EGTT SIGMET 04 VALID 161500/161900 EGRR
EGTT LONDON FIR SEV TURB FCST WI N5040 E00128 - N5000 W00015 - N4850 W00800 - N5100 W00800 - N5220 W00530 - N5500 W00530 - N5500 W00216 - N5225 W00329 - N5038 W00249 - N5040 E00128 SFC/FL060 STNR NC=
Turbulence forte
EGTT SIGMET 03 VALID 161100/161500 EGRR
EGTT LONDON FIR SEV TURB FCST WI N5000 W00015 - N4850 W00800 - N5100 W00800 - N5220 W00530 - N5500 W00530 - N5500 W00240 - N5041 W00323 - N5100 E00128 - N5040 E00128 - N5000 W00015 SFC/FL060 STNR NC=



MET'MAP, la Météo Aéronautique d'un coup d'oeil ! - Copyright ORBIFLY Décembre 2007 - Disclaimer

ORBIFLY MET'MAP TEAM :

Programmation & Développement : Alexandra Zaïnal
Conception & Développement : Baudouin d'Aumeries
Co-Programmation & Développement : Marc-Olivier Méhu
Soutien technique & logistique : Manuel Goepfert

Contact : metmap@orbifly.com




SOURCES & CREDITS :

   NOAA